createdAt,value
2023-06-11T00:01:53.726Z,99887.47
2023-06-11T00:04:25.850Z,99896.91
2023-06-11T00:07:00.895Z,99899.00
2023-06-11T00:09:28.051Z,99890.81
2023-06-11T00:11:55.147Z,99897.34
2023-06-11T00:14:23.574Z,99889.16
2023-06-11T00:16:51.146Z,99900.69
2023-06-11T00:19:22.024Z,99901.94
2023-06-11T00:21:50.309Z,99900.47
2023-06-11T00:24:17.839Z,99904.88
2023-06-11T00:26:44.790Z,99896.28
2023-06-11T00:29:11.730Z,99900.47
2023-06-11T00:31:38.414Z,99894.16
2023-06-11T00:34:05.174Z,99898.38
2023-06-11T00:36:33.704Z,99895.88
2023-06-11T00:39:00.415Z,99906.13
2023-06-11T00:41:28.068Z,99898.38
2023-06-11T00:43:57.217Z,99905.09
2023-06-11T00:46:24.770Z,99903.63
2023-06-11T00:48:52.332Z,99901.75
2023-06-11T00:51:22.118Z,99908.44
2023-06-11T00:53:48.784Z,99905.28
2023-06-11T00:56:18.830Z,99903.41
2023-06-11T00:58:46.921Z,99908.41
2023-06-11T01:01:18.379Z,99907.19
2023-06-11T01:03:45.313Z,99907.16
2023-06-11T01:06:19.415Z,99907.78
2023-06-11T01:08:46.594Z,99909.88
2023-06-11T01:11:22.752Z,99907.34
2023-06-11T01:13:50.218Z,99907.16
2023-06-11T01:16:33.993Z,99914.72
2023-06-11T01:19:13.303Z,99902.94
2023-06-11T01:21:46.270Z,99909.69
2023-06-11T01:24:45.188Z,99902.13
2023-06-11T01:27:27.637Z,99902.75
2023-06-11T01:29:56.244Z,99907.34
2023-06-11T01:32:27.258Z,99902.94
2023-06-11T01:35:01.585Z,99908.19
2023-06-11T01:37:30.717Z,99909.66
2023-06-11T01:39:57.637Z,99908.59
2023-06-11T01:42:24.299Z,99909.84
2023-06-11T01:44:50.990Z,99912.16
2023-06-11T01:47:17.621Z,99907.75
2023-06-11T01:49:44.430Z,99916.94
2023-06-11T01:52:11.093Z,99915.94
2023-06-11T01:54:37.719Z,99913.19
2023-06-11T01:57:04.542Z,99917.34
2023-06-11T01:59:31.335Z,99917.34
2023-06-11T02:01:58.049Z,99909.41
2023-06-11T02:04:24.692Z,99921.38
2023-06-11T02:06:51.726Z,99916.53
2023-06-11T02:09:18.648Z,99914.19
2023-06-11T02:11:47.963Z,99912.94
2023-06-11T02:14:14.626Z,99925.53
2023-06-11T02:16:41.318Z,99916.06
2023-06-11T02:19:08.693Z,99919.41
2023-06-11T02:21:35.600Z,99918.97
2023-06-11T02:24:03.105Z,99917.06
2023-06-11T02:26:29.892Z,99925.47
2023-06-11T02:28:56.481Z,99921.28
2023-06-11T02:31:23.106Z,99918.31
2023-06-11T02:33:49.822Z,99926.72
2023-06-11T02:36:16.479Z,99921.47
2023-06-11T02:38:43.097Z,99916.41
2023-06-11T02:41:09.716Z,99915.59
2023-06-11T02:43:36.337Z,99919.16
2023-06-11T02:46:02.986Z,99922.28
2023-06-11T02:48:29.600Z,99921.84
2023-06-11T02:50:56.341Z,99921.22
2023-06-11T02:53:23.009Z,99914.91
2023-06-11T02:55:49.623Z,99914.53
2023-06-11T02:58:16.374Z,99918.06
2023-06-11T03:00:43.389Z,99922.91
2023-06-11T03:03:10.055Z,99919.56
2023-06-11T03:05:36.693Z,99915.53
2023-06-11T03:08:03.291Z,99921.63
2023-06-11T03:10:29.944Z,99919.13
2023-06-11T03:12:57.007Z,99927.06
2023-06-11T03:15:23.855Z,99927.88
2023-06-11T03:17:50.684Z,99927.88
2023-06-11T03:20:17.365Z,99932.75
2023-06-11T03:22:44.004Z,99931.25
2023-06-11T03:25:10.871Z,99934.00
2023-06-11T03:27:38.536Z,99929.41
2023-06-11T03:30:06.831Z,99937.16
2023-06-11T03:32:33.562Z,99935.03
2023-06-11T03:35:00.546Z,99940.25
2023-06-11T03:37:27.226Z,99941.75
2023-06-11T03:39:53.916Z,99939.69
2023-06-11T03:42:20.572Z,99941.13
2023-06-11T03:44:47.252Z,99942.16
2023-06-11T03:47:13.984Z,99936.06
2023-06-11T03:49:40.763Z,99935.03
2023-06-11T03:52:08.163Z,99934.19
2023-06-11T03:54:34.890Z,99942.16
2023-06-11T03:57:01.537Z,99940.25
2023-06-11T03:59:28.117Z,99945.13
2023-06-11T04:01:54.806Z,99944.09
2023-06-11T04:04:21.564Z,99943.84
2023-06-11T04:06:48.221Z,99944.09
2023-06-11T04:09:14.873Z,99947.19
2023-06-11T04:11:41.469Z,99951.59
2023-06-11T04:14:08.155Z,99951.84
2023-06-11T04:16:34.958Z,99943.00
2023-06-11T04:19:01.584Z,99948.44
2023-06-11T04:21:28.281Z,99946.56
2023-06-11T04:23:54.910Z,99947.19
2023-06-11T04:26:24.805Z,99950.97
2023-06-11T04:28:51.636Z,99950.34
2023-06-11T04:31:18.440Z,99949.69
2023-06-11T04:33:47.131Z,99949.69
2023-06-11T04:36:13.795Z,99953.47
2023-06-11T04:38:45.867Z,99952.22
2023-06-11T04:41:13.006Z,99956.44
2023-06-11T04:43:41.671Z,99958.53
2023-06-11T04:46:08.287Z,99965.66
2023-06-11T04:48:36.072Z,99964.66
2023-06-11T04:51:03.356Z,99963.63
2023-06-11T04:53:30.991Z,99960.91
2023-06-11T04:56:01.110Z,99953.59
2023-06-11T04:58:30.817Z,99954.66
2023-06-11T05:00:58.285Z,99955.09
2023-06-11T05:03:27.972Z,99956.78
2023-06-11T05:05:56.023Z,99959.72
2023-06-11T05:08:25.695Z,99954.50
2023-06-11T05:10:57.530Z,99952.59
2023-06-11T05:13:26.317Z,99955.78
2023-06-11T05:15:54.080Z,99960.00
2023-06-11T05:18:20.944Z,99961.69
2023-06-11T05:20:49.741Z,99961.47
2023-06-11T05:23:16.916Z,99963.19
2023-06-11T05:25:51.200Z,99957.53
2023-06-11T05:28:18.249Z,99969.50
2023-06-11T05:30:46.796Z,99968.69
2023-06-11T05:33:18.064Z,99960.31
2023-06-11T05:35:45.477Z,99967.88
2023-06-11T05:38:12.069Z,99974.84
2023-06-11T05:40:39.066Z,99971.88
2023-06-11T05:43:06.893Z,99969.22
2023-06-11T05:45:34.200Z,99974.25
2023-06-11T05:48:02.173Z,99970.22
2023-06-11T05:50:28.971Z,99972.78
2023-06-11T05:52:55.723Z,99976.97
2023-06-11T05:55:22.322Z,99979.91
2023-06-11T05:57:48.964Z,99979.91
2023-06-11T06:00:15.974Z,99975.28
2023-06-11T06:02:42.882Z,99978.25
2023-06-11T06:05:09.963Z,99981.19
2023-06-11T06:07:37.080Z,99982.22
2023-06-11T06:10:04.016Z,99987.97
2023-06-11T06:12:30.903Z,99989.00
2023-06-11T06:14:57.501Z,99991.97
2023-06-11T06:17:24.301Z,99999.31
2023-06-11T06:19:51.168Z,99987.97
2023-06-11T06:22:19.537Z,99987.97
2023-06-11T06:24:46.227Z,99991.53
2023-06-11T06:27:12.959Z,99991.28
2023-06-11T06:29:42.668Z,99995.50
2023-06-11T06:32:09.763Z,99990.84
2023-06-11T06:34:36.930Z,100002.63
2023-06-11T06:37:03.852Z,99998.16
2023-06-11T06:39:30.878Z,99996.47
2023-06-11T06:41:57.522Z,100003.56
2023-06-11T06:44:24.124Z,99993.59
2023-06-11T06:46:51.108Z,99996.94
2023-06-11T06:49:17.808Z,99992.88
2023-06-11T06:51:44.441Z,100002.13
2023-06-11T06:54:11.087Z,99998.75
2023-06-11T06:56:38.004Z,99995.72
2023-06-11T06:59:04.627Z,99998.00
2023-06-11T07:01:31.985Z,99999.03
2023-06-11T07:03:58.636Z,100000.25
2023-06-11T07:06:27.817Z,100000.25
2023-06-11T07:08:54.733Z,100000.25
2023-06-11T07:11:23.229Z,100000.00
2023-06-11T07:13:50.125Z,100003.75
2023-06-11T07:16:17.039Z,99996.94
2023-06-11T07:18:43.696Z,100000.03
2023-06-11T07:21:10.897Z,99997.47
2023-06-11T07:23:37.840Z,100001.41
2023-06-11T07:26:04.652Z,100004.16
2023-06-11T07:28:31.327Z,100009.13
2023-06-11T07:30:58.092Z,100003.97
2023-06-11T07:33:24.805Z,100006.59
2023-06-11T07:35:53.803Z,100000.38
2023-06-11T07:38:20.450Z,99997.34
2023-06-11T07:40:48.156Z,99995.56
2023-06-11T07:43:14.794Z,100002.28
2023-06-11T07:45:41.439Z,100016.09
2023-06-11T07:48:08.866Z,100003.13
2023-06-11T07:50:36.042Z,100002.00
2023-06-11T07:53:03.632Z,100005.47
2023-06-11T07:55:30.664Z,100012.16
2023-06-11T07:57:57.343Z,100010.88
2023-06-11T08:00:24.002Z,100009.16
2023-06-11T08:02:53.446Z,100011.31
2023-06-11T08:05:20.578Z,100013.38
2023-06-11T08:07:48.603Z,100018.88
2023-06-11T08:10:15.919Z,100022.03
2023-06-11T08:12:42.829Z,100016.69
2023-06-11T08:15:11.327Z,100019.34
2023-06-11T08:17:39.158Z,100018.41
2023-06-11T08:20:08.666Z,100012.84
2023-06-11T08:22:35.755Z,100018.44
2023-06-11T08:25:02.431Z,100011.44
2023-06-11T08:27:29.068Z,100022.09
2023-06-11T08:29:55.696Z,100022.13
2023-06-11T08:32:22.438Z,100023.84
2023-06-11T08:34:49.230Z,100017.78
2023-06-11T08:37:16.456Z,100019.00
2023-06-11T08:39:43.159Z,100020.78
2023-06-11T08:42:09.952Z,100016.38
2023-06-11T08:44:36.947Z,100025.56
2023-06-11T08:47:05.240Z,100026.06
2023-06-11T08:49:32.422Z,100029.06
2023-06-11T08:52:04.832Z,100028.44
2023-06-11T08:54:33.021Z,100024.50
2023-06-11T08:57:00.702Z,100022.72
2023-06-11T08:59:27.315Z,100029.53
2023-06-11T09:01:54.087Z,100032.97
2023-06-11T09:04:24.320Z,100034.53
2023-06-11T09:06:52.685Z,100030.09
2023-06-11T09:09:19.865Z,100023.84
2023-06-11T09:11:47.256Z,100024.44
2023-06-11T09:14:13.922Z,100023.97
2023-06-11T09:16:45.844Z,100033.03
2023-06-11T09:19:17.709Z,100038.66
2023-06-11T09:21:55.923Z,100028.84
2023-06-11T09:24:24.671Z,100021.59
2023-06-11T09:26:56.990Z,100022.34
2023-06-11T09:29:24.833Z,100031.72
2023-06-11T09:32:23.903Z,100029.84
2023-06-11T09:34:57.085Z,100034.03
2023-06-11T09:37:24.303Z,100019.56
2023-06-11T09:39:51.529Z,100025.63
2023-06-11T09:42:28.103Z,100024.03
2023-06-11T09:45:02.150Z,100032.41
2023-06-11T09:47:31.605Z,100030.91
2023-06-11T09:50:02.479Z,100029.72
2023-06-11T09:52:29.604Z,100033.22
2023-06-11T09:54:56.676Z,100023.38
2023-06-11T09:57:23.434Z,100031.13
2023-06-11T09:59:50.259Z,100027.81
2023-06-11T10:02:17.086Z,100022.78
2023-06-11T10:04:43.931Z,100025.88
2023-06-11T10:07:11.576Z,100026.63
2023-06-11T10:09:39.949Z,100028.72
2023-06-11T10:12:08.212Z,100028.72
2023-06-11T10:14:38.264Z,100025.34
2023-06-11T10:17:09.457Z,100028.53
2023-06-11T10:19:39.690Z,100033.72
2023-06-11T10:22:09.721Z,100029.88
2023-06-11T10:24:36.812Z,100035.25
2023-06-11T10:27:15.491Z,100036.44
2023-06-11T10:29:42.255Z,100036.81
2023-06-11T10:32:35.404Z,100027.63
2023-06-11T10:35:05.921Z,100029.66
2023-06-11T10:37:36.610Z,100030.72
2023-06-11T10:40:06.478Z,100025.03
2023-06-11T10:42:39.065Z,100014.63
2023-06-11T10:45:15.057Z,100014.03
2023-06-11T10:47:46.604Z,100014.66
2023-06-11T10:50:15.993Z,100023.50
2023-06-11T10:52:55.668Z,100023.50
2023-06-11T10:55:23.380Z,100019.56
2023-06-11T10:57:53.880Z,100009.72
2023-06-11T11:00:21.125Z,100012.19
2023-06-11T11:02:48.985Z,100017.72
2023-06-11T11:05:15.802Z,100009.88
2023-06-11T11:07:45.879Z,100017.72
2023-06-11T11:10:20.156Z,100025.03
2023-06-11T11:12:48.189Z,100018.13
2023-06-11T11:15:16.039Z,100016.34
2023-06-11T11:17:46.315Z,100022.38
2023-06-11T11:20:15.641Z,100017.53
2023-06-11T11:22:42.373Z,100008.78
2023-06-11T11:25:09.439Z,100010.13
2023-06-11T11:27:38.917Z,100013.31
2023-06-11T11:30:06.432Z,100019.78
2023-06-11T11:32:35.558Z,100019.94
2023-06-11T11:35:04.580Z,100016.50
2023-06-11T11:37:31.822Z,100020.75
2023-06-11T11:40:08.192Z,100017.78
2023-06-11T11:42:50.974Z,100011.25
2023-06-11T11:45:19.359Z,100011.84
2023-06-11T11:47:52.070Z,100007.94
2023-06-11T11:50:24.775Z,100009.03
2023-06-11T11:53:13.240Z,100009.91
2023-06-11T11:55:56.090Z,100007.34
2023-06-11T11:58:27.718Z,99997.13
2023-06-11T12:00:59.225Z,100000.81
2023-06-11T12:03:27.792Z,99999.06
2023-06-11T12:06:01.764Z,99996.53
2023-06-11T12:08:31.807Z,99996.94
2023-06-11T12:10:59.320Z,99991.50
2023-06-11T12:13:26.376Z,99998.34
2023-06-11T12:15:53.645Z,99993.94
2023-06-11T12:18:20.953Z,99998.44
2023-06-11T12:20:47.939Z,100002.69
2023-06-11T12:23:15.485Z,99999.31
2023-06-11T12:25:43.404Z,99997.28
2023-06-11T12:28:10.006Z,99998.84
2023-06-11T12:30:36.914Z,99995.56
2023-06-11T12:33:03.706Z,99992.22
2023-06-11T12:35:31.581Z,99989.06
2023-06-11T12:37:58.827Z,99996.38
2023-06-11T12:40:25.815Z,99992.28
2023-06-11T12:42:58.075Z,99995.88
2023-06-11T12:45:27.923Z,99990.59
2023-06-11T12:47:54.897Z,99994.28
2023-06-11T12:50:25.132Z,99987.91
2023-06-11T12:52:53.338Z,99991.25
2023-06-11T12:55:20.680Z,99985.75
2023-06-11T12:57:47.427Z,99979.53
2023-06-11T13:00:14.914Z,99977.38
2023-06-11T13:02:42.512Z,99981.56
2023-06-11T13:05:09.556Z,99980.88
2023-06-11T13:07:36.370Z,99981.97
2023-06-11T13:10:03.755Z,99975.00
2023-06-11T13:12:30.856Z,99976.28
2023-06-11T13:14:57.556Z,99975.56
2023-06-11T13:17:24.145Z,99978.09
2023-06-11T13:19:55.815Z,99979.34
2023-06-11T13:22:23.136Z,99972.97
2023-06-11T13:24:50.309Z,99974.88
2023-06-11T13:27:17.252Z,99967.47
2023-06-11T13:29:43.941Z,99972.78
2023-06-11T13:32:10.629Z,99967.75
2023-06-11T13:34:37.480Z,99967.81
2023-06-11T13:37:04.563Z,99969.38
2023-06-11T13:39:32.812Z,99962.81
2023-06-11T13:41:59.491Z,99964.53
2023-06-11T13:44:26.144Z,99960.34
2023-06-11T13:46:52.845Z,99968.56
2023-06-11T13:49:19.581Z,99965.75
2023-06-11T13:51:46.194Z,99960.91
2023-06-11T13:54:12.791Z,99961.97
2023-06-11T13:56:40.556Z,99964.63
2023-06-11T13:59:07.546Z,99963.13
2023-06-11T14:01:34.283Z,99969.47
2023-06-11T14:04:01.049Z,99964.09
2023-06-11T14:06:29.014Z,99967.47
2023-06-11T14:08:57.547Z,99966.16
2023-06-11T14:11:27.048Z,99968.22
2023-06-11T14:13:53.679Z,99971.63
2023-06-11T14:16:20.416Z,99974.38
2023-06-11T14:18:47.121Z,99976.69
2023-06-11T14:21:13.753Z,99975.50
2023-06-11T14:23:40.537Z,99965.16
2023-06-11T14:26:07.299Z,99978.31
2023-06-11T14:28:33.967Z,99970.09
2023-06-11T14:31:01.092Z,99976.69
2023-06-11T14:33:27.857Z,99974.09
2023-06-11T14:35:54.728Z,99981.97
2023-06-11T14:38:21.442Z,99979.03
2023-06-11T14:40:48.433Z,99979.16
2023-06-11T14:43:15.426Z,99973.66
2023-06-11T14:45:42.220Z,99982.44
2023-06-11T14:48:09.055Z,99983.59
2023-06-11T14:50:35.934Z,99994.59
2023-06-11T14:53:02.649Z,99997.75
2023-06-11T14:55:29.237Z,99997.53
2023-06-11T14:57:55.950Z,99993.88
2023-06-11T15:00:22.804Z,99997.09
2023-06-11T15:02:49.609Z,99996.84
2023-06-11T15:05:16.552Z,99994.25
2023-06-11T15:07:43.354Z,99997.63
2023-06-11T15:10:11.738Z,99993.44
2023-06-11T15:12:38.814Z,99997.91
2023-06-11T15:15:06.464Z,99996.25
2023-06-11T15:17:36.832Z,100003.31
2023-06-11T15:20:06.181Z,100005.09
2023-06-11T15:22:36.208Z,100006.69
2023-06-11T15:25:03.588Z,100018.03
2023-06-11T15:27:30.183Z,100018.03
2023-06-11T15:29:56.896Z,100024.75
2023-06-11T15:32:23.579Z,100024.25
2023-06-11T15:34:50.605Z,100025.47
2023-06-11T15:37:18.223Z,100025.47
2023-06-11T15:39:53.841Z,100020.91
2023-06-11T15:42:20.650Z,100034.09
2023-06-11T15:44:49.509Z,100032.41
2023-06-11T15:47:17.021Z,100034.44
2023-06-11T15:49:43.723Z,100033.47
2023-06-11T15:52:10.523Z,100034.91
2023-06-11T15:54:37.280Z,100042.13
2023-06-11T15:57:04.783Z,100045.56
2023-06-11T15:59:32.514Z,100046.41
2023-06-11T16:01:59.394Z,100048.81
2023-06-11T16:04:26.867Z,100059.31
2023-06-11T16:06:53.798Z,100041.75
2023-06-11T16:09:20.467Z,100044.72
2023-06-11T16:11:47.078Z,100050.00
2023-06-11T16:14:16.109Z,100060.28
2023-06-11T16:16:43.316Z,100062.09
2023-06-11T16:19:09.934Z,100066.28
2023-06-11T16:21:37.887Z,100070.78
2023-06-11T16:24:05.648Z,100069.34
2023-06-11T16:26:32.554Z,100072.91
2023-06-11T16:28:59.200Z,100069.59
2023-06-11T16:31:26.377Z,100066.84
2023-06-11T16:33:58.741Z,100072.56
2023-06-11T16:36:26.483Z,100079.59
2023-06-11T16:38:53.180Z,100074.22
2023-06-11T16:41:19.875Z,100079.50
2023-06-11T16:43:46.484Z,100084.63
2023-06-11T16:46:13.098Z,100091.31
2023-06-11T16:48:39.928Z,100092.13
2023-06-11T16:51:06.640Z,100091.81
2023-06-11T16:53:33.315Z,100097.09
2023-06-11T16:56:00.000Z,100094.19
2023-06-11T16:58:26.668Z,100097.72
2023-06-11T17:00:53.309Z,100087.88
2023-06-11T17:03:20.089Z,100094.66
2023-06-11T17:05:46.883Z,100088.19
2023-06-11T17:08:14.325Z,100091.34
2023-06-11T17:10:41.055Z,100087.75
2023-06-11T17:13:07.922Z,100086.78
2023-06-11T17:15:34.569Z,100098.69
2023-06-11T17:18:01.404Z,100097.66
2023-06-11T17:20:28.171Z,100103.03
2023-06-11T17:22:55.109Z,100097.38
2023-06-11T17:25:24.881Z,100098.28
2023-06-11T17:27:51.694Z,100099.59
2023-06-11T17:30:18.424Z,100105.50
2023-06-11T17:32:45.046Z,100103.88
2023-06-11T17:35:11.988Z,100100.00
2023-06-11T17:37:38.850Z,100100.28
2023-06-11T17:40:07.249Z,100103.69
2023-06-11T17:42:34.019Z,100115.53
2023-06-11T17:45:01.006Z,100118.09
2023-06-11T17:47:27.760Z,100116.91
2023-06-11T17:49:54.572Z,100119.03
2023-06-11T17:52:21.259Z,100124.56
2023-06-11T17:54:48.036Z,100129.69
2023-06-11T17:57:14.778Z,100125.09
2023-06-11T17:59:41.475Z,100123.22
2023-06-11T18:02:08.295Z,100134.66
2023-06-11T18:04:35.577Z,100138.28
2023-06-11T18:07:02.279Z,100126.28
2023-06-11T18:09:28.899Z,100131.56
2023-06-11T18:11:55.605Z,100135.19
2023-06-11T18:14:25.555Z,100131.41
2023-06-11T18:16:53.489Z,100140.91
2023-06-11T18:19:21.305Z,100138.22
2023-06-11T18:21:48.087Z,100140.13
2023-06-11T18:24:15.158Z,100142.69
2023-06-11T18:26:41.946Z,100143.94
2023-06-11T18:29:08.603Z,100146.06
2023-06-11T18:31:35.807Z,100151.34
2023-06-11T18:34:02.438Z,100160.81
2023-06-11T18:36:29.029Z,100156.19
2023-06-11T18:38:55.713Z,100152.22
2023-06-11T18:41:22.723Z,100152.00
2023-06-11T18:43:49.419Z,100153.25
2023-06-11T18:46:16.113Z,100155.97
2023-06-11T18:48:42.796Z,100166.09
2023-06-11T18:51:09.447Z,100168.41
2023-06-11T18:53:36.128Z,100167.97
2023-06-11T18:56:02.815Z,100172.19
2023-06-11T18:58:29.456Z,100175.75
2023-06-11T19:00:56.112Z,100172.59
2023-06-11T19:03:22.827Z,100174.50
2023-06-11T19:05:50.797Z,100181.63
2023-06-11T19:08:21.332Z,100183.94
2023-06-11T19:10:48.554Z,100180.97
2023-06-11T19:13:17.580Z,100186.88
2023-06-11T19:15:45.731Z,100187.25
2023-06-11T19:18:13.720Z,100188.50
2023-06-11T19:20:41.451Z,100188.06
2023-06-11T19:23:08.855Z,100196.03
2023-06-11T19:25:35.693Z,100196.84
2023-06-11T19:28:02.609Z,100197.28
2023-06-11T19:30:29.331Z,100197.41
2023-06-11T19:32:56.147Z,100205.16
2023-06-11T19:35:23.036Z,100208.13
2023-06-11T19:37:49.864Z,100205.97
2023-06-11T19:40:16.607Z,100205.56
2023-06-11T19:42:43.269Z,100205.31
2023-06-11T19:45:11.079Z,100212.44
2023-06-11T19:47:38.243Z,100214.31
2023-06-11T19:50:06.098Z,100211.31
2023-06-11T19:52:32.866Z,100207.91
2023-06-11T19:54:59.666Z,100209.34
2023-06-11T19:57:26.283Z,100208.47
2023-06-11T19:59:53.448Z,100212.00
2023-06-11T20:02:20.699Z,100210.69
2023-06-11T20:04:47.565Z,100218.63
2023-06-11T20:07:17.101Z,100218.38
2023-06-11T20:09:46.383Z,100221.91
2023-06-11T20:12:13.226Z,100224.75
2023-06-11T20:14:39.857Z,100218.19
2023-06-11T20:17:06.616Z,100226.97
2023-06-11T20:19:36.671Z,100224.66
2023-06-11T20:22:06.684Z,100221.44
2023-06-11T20:24:33.680Z,100219.06
2023-06-11T20:27:00.394Z,100210.88
2023-06-11T20:29:27.123Z,100219.00
2023-06-11T20:31:53.810Z,100211.41
2023-06-11T20:34:20.769Z,100213.84
2023-06-11T20:36:50.933Z,100213.81
2023-06-11T20:39:17.912Z,100220.69
2023-06-11T20:41:44.574Z,100224.56
2023-06-11T20:44:11.319Z,100215.91
2023-06-11T20:46:38.159Z,100226.56
2023-06-11T20:49:04.935Z,100221.50
2023-06-11T20:51:31.713Z,100213.91
2023-06-11T20:53:58.407Z,100212.41
2023-06-11T20:56:25.143Z,100220.75
2023-06-11T20:58:51.780Z,100210.44
2023-06-11T21:01:18.450Z,100212.00
2023-06-11T21:03:45.208Z,100215.97
2023-06-11T21:06:12.022Z,100210.25
2023-06-11T21:08:38.665Z,100215.22
2023-06-11T21:11:05.465Z,100211.41
2023-06-11T21:13:32.061Z,100221.44
2023-06-11T21:15:58.745Z,100230.00
2023-06-11T21:18:25.372Z,100236.66
2023-06-11T21:20:52.170Z,100234.13
2023-06-11T21:23:21.182Z,100231.97
2023-06-11T21:25:48.841Z,100232.78
2023-06-11T21:28:15.763Z,100232.50
2023-06-11T21:30:43.866Z,100235.63
2023-06-11T21:33:10.637Z,100241.94
2023-06-11T21:35:37.294Z,100241.44
2023-06-11T21:38:03.910Z,100235.53
2023-06-11T21:40:30.735Z,100252.25
2023-06-11T21:42:57.381Z,100242.56
2023-06-11T21:45:23.964Z,100233.94
2023-06-11T21:47:50.735Z,100248.75
2023-06-11T21:50:17.679Z,100242.00
2023-06-11T21:52:44.402Z,100240.50
2023-06-11T21:55:11.059Z,100234.41
2023-06-11T21:57:37.680Z,100222.19
2023-06-11T22:00:13.355Z,100230.34
2023-06-11T22:02:44.100Z,100230.75
2023-06-11T22:05:13.538Z,100228.38
2023-06-11T22:07:40.686Z,100232.31
2023-06-11T22:10:09.632Z,100232.03
2023-06-11T22:12:42.899Z,100228.81
2023-06-11T22:15:11.457Z,100225.63
2023-06-11T22:17:40.726Z,100230.59
2023-06-11T22:20:09.529Z,100229.91
2023-06-11T22:22:38.360Z,100226.56
2023-06-11T22:25:06.246Z,100220.47
2023-06-11T22:27:33.460Z,100224.53
2023-06-11T22:30:00.360Z,100222.56
2023-06-11T22:32:27.621Z,100219.19
2023-06-11T22:34:54.355Z,100222.25
2023-06-11T22:37:20.995Z,100214.47
2023-06-11T22:39:47.650Z,100224.88
2023-06-11T22:42:14.279Z,100214.34
2023-06-11T22:44:40.957Z,100209.66
2023-06-11T22:47:08.937Z,100218.34
2023-06-11T22:49:35.665Z,100212.25
2023-06-11T22:52:02.361Z,100202.56
2023-06-11T22:54:29.148Z,100204.63
2023-06-11T22:56:56.082Z,100196.84
2023-06-11T22:59:22.750Z,100194.50
2023-06-11T23:01:49.901Z,100199.63
2023-06-11T23:04:17.173Z,100198.75
2023-06-11T23:06:47.432Z,100194.56
2023-06-11T23:09:15.577Z,100192.84
2023-06-11T23:11:42.755Z,100189.66
2023-06-11T23:14:10.514Z,100192.91
2023-06-11T23:16:41.755Z,100193.28
2023-06-11T23:19:08.883Z,100194.47
2023-06-11T23:21:41.504Z,100192.13
2023-06-11T23:24:08.476Z,100193.50
2023-06-11T23:26:35.128Z,100195.41
2023-06-11T23:29:02.081Z,100192.00
2023-06-11T23:31:31.375Z,100189.47
2023-06-11T23:33:58.459Z,100190.84
2023-06-11T23:36:27.147Z,100194.78
2023-06-11T23:38:53.752Z,100185.09
2023-06-11T23:41:20.495Z,100186.47
2023-06-11T23:43:47.139Z,100182.47
2023-06-11T23:46:13.852Z,100183.66
2023-06-11T23:48:40.573Z,100192.13
2023-06-11T23:51:09.942Z,100193.84
2023-06-11T23:53:37.264Z,100189.63
2023-06-11T23:56:04.012Z,100193.53
2023-06-11T23:58:30.823Z,100189.84
